Lynwood, Illinois
Current Conditions -  °F | °C
As of 6:55 AM on Friday 24 Oct 2014 (Local Time) from KIGQ Reporting Station
Overcast Overcast  
Wind Chill: 49°   Ceiling: 2500
Heat Index: 49°   Visibility: 10mi
Dew Point: 46°   Wind: 3mph
Humidity: 89%   Direction: 210°SSW
Pressure: 30.07"   Gusts: NA
Location:  41.5054°N, 87.5907°W
Report Text: KIGQ 241155Z AUTO 21003KT 10SM BKN025 OVC030 09/08 A3007 RMK AO2 T00940076 10111 20085
Loading
Personal Weather Stations






























Interactive Weather Map
Tropical Storm Tracking
New forecast layout! Learn more

10-Day Weather Forecast

Advertisements
Track Severe Weather on mobile